Date,TemperatureHighF,TemperatureAvgF,TemperatureLowF,DewpointHighF,DewpointAvgF,DewpointLowF,HumidityHigh,HumidityAvg,HumidityLow,PressureMaxIn,PressureMinIn,WindSpeedMaxMPH,WindSpeedAvgMPH,GustSpeedMaxMPH,PrecipitationSumIn
2013-9-1,86,75,66,72,69,65,98,82,59,29.85,29.76,6,1,8,0.00
2013-9-2,84,75,67,73,68,59,96,80,64,29.90,29.78,5,1,10,0.00
2013-9-3,67,61,54,59,54,51,95,79,65,30.07,29.90,5,1,8,0.00
2013-9-4,83,65,49,61,56,49,98,74,43,30.15,30.07,6,1,9,0.00
2013-9-5,80,68,57,65,56,45,92,70,39,30.23,30.11,5,0,8,0.00
2013-9-6,78,62,47,54,48,43,97,67,29,30.28,30.12,4,0,5,0.00
2013-9-7,86,68,50,66,58,48,97,72,48,30.12,29.95,6,1,9,0.00
2013-9-8,82,75,67,70,66,63,89,76,66,30.04,29.95,3,1,8,0.00
2013-9-9,89,75,61,71,66,60,97,75,52,30.06,29.98,5,1,13,0.00
2013-9-10,95,83,72,76,72,69,89,71,51,30.13,30.03,7,2,11,0.00
2013-9-11,90,78,72,76,71,66,93,80,61,30.16,30.01,6,1,11,0.28
2013-9-12,77,71,61,71,67,58,95,86,61,30.01,29.85,7,1,12,0.34
2013-9-13,64,58,51,58,50,46,92,76,60,30.10,29.92,5,1,9,0.00
2013-9-14,69,54,42,48,45,41,97,74,42,30.19,30.10,4,0,6,0.00
2013-9-15,75,59,42,57,50,42,97,74,42,30.17,30.04,6,0,11,0.00
2013-9-16,72,62,55,57,54,49,97,79,52,30.32,30.11,4,1,6,0.09
2013-9-17,74,58,45,54,50,44,97,75,46,30.36,30.21,3,0,6,0.00
2013-9-18,77,63,51,63,57,49,95,83,60,30.21,30.06,2,0,5,0.00
2013-9-19,74,68,65,68,65,63,97,92,81,30.11,30.00,2,0,5,0.03
2013-9-20,87,74,65,71,67,65,98,82,53,30.02,29.80,8,2,16,0.15
2013-9-21,73,65,56,67,59,48,98,82,54,29.87,29.69,4,0,9,1.49
2013-9-22,65,55,47,49,46,44,92,74,49,30.05,29.87,5,0,6,0.00
2013-9-23,65,52,40,50,44,39,98,78,51,30.15,30.05,2,0,7,0.00
2013-9-24,70,53,39,50,45,38,98,79,47,30.13,29.96,2,0,5,0.00
2013-9-25,72,57,46,54,50,45,98,80,52,29.97,29.89,2,0,3,0.00
2013-9-26,79,61,49,57,50,43,98,72,29,30.10,29.95,3,0,5,0.00
2013-9-27,78,60,44,55,51,43,97,75,41,30.20,30.11,3,0,4,0.00
2013-9-28,79,62,46,58,52,45,98,74,42,30.21,30.09,4,0,6,0.00
2013-9-29,74,63,54,62,57,52,96,83,58,30.09,30.00,11,1,11,0.00
2013-9-30,74,66,59,62,60,57,91,82,66,30.04,29.96,6,1,10,0.00